Time;durP1;ratioP1;P1;durP2;ratioP2;P2;SDS_P1;SDS_P2;PMS_P1;PMS_P2;Temp;Humidity;BMP_temperature;BMP_pressure;BME280_temperature;BME280_humidity;BME280_pressure;Samples;Min_cycle;Max_cycle;Signal;HPM_P1;HPM_P2
2023/04/15 00:01:18;;;;;;;4.80;3.42;;;;;;;9.53;100.00;100734.00;5050450;28;20103;-44
2023/04/15 00:03:44;;;;;;;9.30;3.53;;;;;;;9.49;100.00;100727.31;5050788;28;20028;-43
2023/04/15 00:06:09;;;;;;;6.32;3.60;;;;;;;9.50;100.00;100728.97;5065064;28;20380;-43
2023/04/15 00:08:35;;;;;;;6.95;3.67;;;;;;;9.50;100.00;100731.66;5066732;28;20029;-44
2023/04/15 00:11:04;;;;;;;12.73;3.92;;;;;;;9.50;100.00;100734.34;5050875;28;20033;-48
2023/04/15 00:13:29;;;;;;;8.43;3.92;;;;;;;9.50;100.00;100734.34;5067297;28;20124;-45
2023/04/15 00:15:55;;;;;;;8.10;3.58;;;;;;;9.46;100.00;100731.19;5056240;28;20470;-44
2023/04/15 00:18:20;;;;;;;11.35;3.95;;;;;;;9.43;100.00;100734.25;5068923;28;20029;-43
2023/04/15 00:20:46;;;;;;;8.65;3.80;;;;;;;9.37;100.00;100734.94;5050280;28;20029;-43
2023/04/15 00:23:11;;;;;;;13.93;4.38;;;;;;;9.36;100.00;100731.41;5050036;28;20107;-44
2023/04/15 00:25:36;;;;;;;9.05;4.25;;;;;;;9.29;100.00;100741.19;5064884;28;20336;-44
2023/04/15 00:28:02;;;;;;;12.15;3.90;;;;;;;9.29;100.00;100737.66;5068334;28;20508;-44
2023/04/15 00:30:28;;;;;;;6.22;3.95;;;;;;;9.22;100.00;100741.06;5053472;28;20033;-45
2023/04/15 00:32:53;;;;;;;11.20;4.10;;;;;;;9.18;100.00;100736.22;5049286;28;20033;-44
2023/04/15 00:35:18;;;;;;;10.13;4.28;;;;;;;9.15;100.00;100747.31;5049168;28;20316;-44
2023/04/15 00:37:44;;;;;;;9.63;4.60;;;;;;;9.11;100.00;100751.34;5062152;28;20033;-46
2023/04/15 00:40:12;;;;;;;10.50;4.00;;;;;;;9.06;100.00;100748.34;5062794;28;20043;-45
2023/04/15 00:42:37;;;;;;;;;;;;;;;8.99;100.00;100746.34;5069783;28;20507;-46
2023/04/15 00:45:04;;;;;;;11.10;4.25;;;;;;;8.97;100.00;100740.31;5069608;28;19993;-44
2023/04/15 00:47:30;;;;;;;7.90;3.97;;;;;;;8.98;100.00;100750.06;5068815;28;20076;-45
2023/04/15 00:49:55;;;;;;;10.23;4.78;;;;;;;8.94;100.00;100745.22;5056880;28;20492;-44
2023/04/15 00:52:21;;;;;;;9.75;4.10;;;;;;;8.91;100.00;100746.38;5048827;28;20120;-45
2023/04/15 00:54:46;;;;;;;10.10;4.53;;;;;;;8.88;100.00;100752.09;5049232;28;20029;-45
2023/04/15 00:57:11;;;;;;;8.38;4.68;;;;;;;8.84;100.00;100749.94;5055576;28;20396;-44
2023/04/15 00:59:37;;;;;;;11.48;4.80;;;;;;;8.79;100.00;100748.63;5060801;28;20044;-45
2023/04/15 01:02:02;;;;;;;16.17;4.68;;;;;;;8.78;100.00;100743.41;5060504;28;20031;-44
2023/04/15 01:04:27;;;;;;;11.45;5.03;;;;;;;8.79;100.00;100742.41;5069837;28;20098;-44
2023/04/15 01:06:53;;;;;;;11.30;5.18;;;;;;;8.81;100.00;100745.75;5066991;28;20021;-46
2023/04/15 01:09:18;;;;;;;12.48;5.15;;;;;;;8.79;100.00;100743.25;5067572;28;20048;-43
2023/04/15 01:11:44;;;;;;;9.32;5.00;;;;;;;8.76;100.00;100748.94;5060563;28;20104;-44
2023/04/15 01:14:09;;;;;;;12.23;4.75;;;;;;;8.77;100.00;100758.69;5049215;28;20039;-44
2023/04/15 01:16:38;;;;;;;12.05;4.88;;;;;;;8.73;100.00;100753.81;5052457;28;20435;-46
2023/04/15 01:19:06;;;;;;;11.32;4.85;;;;;;;8.72;100.00;100749.47;5063244;28;20033;-45
2023/04/15 01:21:32;;;;;;;13.93;5.10;;;;;;;8.71;100.00;100747.78;5064714;28;20029;-46
2023/04/15 01:23:57;;;;;;;12.80;5.60;;;;;;;8.67;100.00;100749.16;5069044;28;20396;-43
2023/04/15 01:26:23;;;;;;;13.63;5.30;;;;;;;8.65;100.00;100746.63;5067244;28;20024;-44
2023/04/15 01:28:49;;;;;;;11.38;5.20;;;;;;;8.64;100.00;100742.28;5069086;28;20060;-45
2023/04/15 01:31:15;;;;;;;11.85;5.20;;;;;;;8.66;100.00;100742.09;5069127;28;20031;-45
2023/04/15 01:33:42;;;;;;;11.35;4.95;;;;;;;8.66;100.00;100742.09;5069068;28;20033;-45
2023/04/15 01:36:08;;;;;;;6.97;4.80;;;;;;;8.65;100.00;100748.50;5062883;28;20041;-44
2023/04/15 01:38:34;;;;;;;12.57;5.05;;;;;;;8.62;100.00;100746.97;5068561;28;20046;-44
2023/04/15 01:41:00;;;;;;;9.63;4.60;;;;;;;8.61;100.00;100744.47;5067057;28;20032;-44
2023/04/15 01:43:26;;;;;;;9.50;5.20;;;;;;;8.59;100.00;100746.50;5049509;28;20029;-44
2023/04/15 01:45:52;;;;;;;11.27;5.25;;;;;;;8.60;100.00;100743.63;5048938;28;20029;-45
2023/04/15 01:48:17;;;;;;;6.85;4.63;;;;;;;8.54;100.00;100745.16;5066687;28;20408;-45
2023/04/15 01:50:43;;;;;;;9.10;4.90;;;;;;;8.50;100.00;100749.16;5069814;28;20071;-46
2023/04/15 01:53:08;;;;;;;9.43;5.00;;;;;;;8.51;100.00;100748.19;5072139;28;20500;-43
2023/04/15 01:55:34;;;;;;;11.80;4.60;;;;;;;8.50;100.00;100748.34;5072807;28;20477;-46
2023/04/15 01:58:00;;;;;;;12.73;5.40;;;;;;;8.50;100.00;100751.03;5069092;28;20085;-44
2023/04/15 02:00:26;;;;;;;9.02;4.90;;;;;;;8.46;100.00;100758.59;5072688;28;20027;-44
2023/04/15 02:02:51;;;;;;;11.15;5.03;;;;;;;8.40;100.00;100747.69;5072033;28;20516;-44
2023/04/15 02:05:16;;;;;;;13.52;5.47;;;;;;;8.38;100.00;100755.88;5071404;28;20094;-44
2023/04/15 02:07:42;;;;;;;11.00;4.95;;;;;;;8.34;100.00;100754.53;5070561;28;20459;-44
2023/04/15 02:10:09;;;;;;;13.55;5.60;;;;;;;8.33;100.00;100753.72;5072007;28;20028;-43
2023/04/15 02:12:34;;;;;;;11.43;5.00;;;;;;;8.28;100.00;100757.91;5056934;28;20029;-46
2023/04/15 02:15:00;;;;;;;11.00;5.05;;;;;;;8.23;100.00;100758.41;5052207;28;20675;-44
2023/04/15 02:17:25;;;;;;;7.43;5.00;;;;;;;8.26;100.00;100759.91;5071588;28;20025;-43
2023/04/15 02:19:50;;;;;;;7.50;5.15;;;;;;;8.23;100.00;100752.22;5072075;28;20500;-43
2023/04/15 02:22:17;;;;;;;13.27;5.55;;;;;;;8.18;100.00;100758.06;5060250;28;20040;-45
2023/04/15 02:24:44;;;;;;;11.30;5.50;;;;;;;8.18;100.00;100759.91;5052481;28;20036;-43
2023/04/15 02:27:10;;;;;;;6.75;5.07;;;;;;;8.20;100.00;100760.59;5068305;28;20040;-45
2023/04/15 02:29:35;;;;;;;9.93;5.50;;;;;;;8.18;100.00;100765.28;5071662;28;20089;-45
2023/04/15 02:32:01;;;;;;;11.57;5.80;;;;;;;8.18;100.00;100765.28;5060233;28;20037;-44
2023/04/15 02:34:26;;;;;;;8.63;5.60;;;;;;;8.17;100.00;100768.97;5050585;28;20024;-44
2023/04/15 02:36:56;;;;;;;15.88;6.13;;;;;;;8.13;100.00;100774.66;5067653;28;20025;-45
2023/04/15 02:39:21;;;;;;;9.18;5.18;;;;;;;8.14;100.00;100773.66;5065906;28;20037;-46
2023/04/15 02:41:50;;;;;;;10.20;5.57;;;;;;;8.11;100.00;100778.53;5071680;28;20051;-44
2023/04/15 02:44:18;;;;;;;11.63;6.05;;;;;;;8.08;100.00;100776.16;5071197;28;20025;-44
2023/04/15 02:46:45;;;;;;;;;;;;;;;8.07;100.00;100786.06;5070922;28;20035;-45
2023/04/15 02:49:10;;;;;;;14.85;6.00;;;;;;;8.05;100.00;100788.06;5071312;28;19931;-44
2023/04/15 02:51:36;;;;;;;13.82;6.53;;;;;;;8.00;100.00;100785.03;5051632;28;20470;-44
2023/04/15 02:54:01;;;;;;;8.45;5.82;;;;;;;7.96;100.00;100789.06;5050904;28;20481;-45
2023/04/15 02:56:26;;;;;;;12.18;6.07;;;;;;;7.96;100.00;100794.44;5062146;28;20416;-44
2023/04/15 02:58:54;;;;;;;12.32;5.88;;;;;;;7.99;100.00;100798.63;5050837;28;20068;-47
2023/04/15 03:01:20;;;;;;;9.98;5.80;;;;;;;7.98;100.00;100805.81;5054435;28;20093;-43
2023/04/15 03:03:46;;;;;;;9.18;5.57;;;;;;;8.01;100.00;100804.66;5071237;28;20028;-43
2023/04/15 03:06:11;;;;;;;11.02;5.85;;;;;;;7.96;100.00;100798.97;5070003;28;20038;-45
2023/04/15 03:08:36;;;;;;;12.68;5.55;;;;;;;7.95;100.00;100800.78;5068592;28;20044;-45
2023/04/15 03:11:02;;;;;;;12.93;5.55;;;;;;;7.94;100.00;100801.78;5070335;28;20025;-45
2023/04/15 03:13:28;;;;;;;12.35;6.18;;;;;;;7.93;100.00;100807.34;5070140;28;20033;-42
2023/04/15 03:15:53;;;;;;;9.75;5.60;;;;;;;7.96;100.00;100809.69;5068845;28;20688;-44
2023/04/15 03:18:18;;;;;;;13.40;6.05;;;;;;;7.94;100.00;100804.47;5070973;28;20025;-44
2023/04/15 03:20:44;;;;;;;8.30;5.57;;;;;;;7.96;100.00;100809.69;5059860;28;20059;-46
2023/04/15 03:23:09;;;;;;;13.60;6.60;;;;;;;7.91;100.00;100812.84;5051399;28;20082;-43
2023/04/15 03:25:36;;;;;;;12.30;6.38;;;;;;;7.86;100.00;100815.19;5056641;28;20031;-42
2023/04/15 03:28:01;;;;;;;15.38;6.63;;;;;;;7.93;100.00;100821.56;5071084;28;20028;-43
2023/04/15 03:30:27;;;;;;;12.30;6.20;;;;;;;7.89;100.00;100822.88;5066366;28;20032;-46
2023/04/15 03:32:52;;;;;;;11.98;6.25;;;;;;;7.87;100.00;100824.88;5051047;28;20053;-44
2023/04/15 03:35:18;;;;;;;13.00;5.95;;;;;;;7.82;100.00;100832.56;5053821;28;20032;-47
2023/04/15 03:37:43;;;;;;;11.15;5.85;;;;;;;7.77;100.00;100840.28;5069830;28;20062;-46
2023/04/15 03:40:09;;;;;;;10.05;6.03;;;;;;;7.71;100.00;100839.06;5068771;28;20039;-47
2023/04/15 03:42:34;;;;;;;11.98;6.05;;;;;;;7.62;100.00;100840.91;5069268;28;20032;-44
2023/04/15 03:45:00;;;;;;;9.93;6.03;;;;;;;7.63;100.00;100839.91;5069691;28;20031;-45
2023/04/15 03:47:25;;;;;;;15.35;6.40;;;;;;;7.59;100.00;100851.13;5070573;28;20496;-44
2023/04/15 03:49:51;;;;;;;11.07;6.28;;;;;;;7.52;100.00;100850.91;5069228;28;20028;-45
2023/04/15 03:52:16;;;;;;;9.73;6.32;;;;;;;7.48;100.00;100854.94;5070081;28;20039;-44
2023/04/15 03:54:41;;;;;;;14.57;6.95;;;;;;;7.40;100.00;100870.97;5070412;28;20089;-45
2023/04/15 03:57:07;;;;;;;10.30;6.20;;;;;;;7.40;100.00;100870.97;5070016;28;20052;-44
2023/04/15 03:59:32;;;;;;;10.15;6.65;;;;;;;7.33;100.00;100864.56;5069380;28;20400;-45
2023/04/15 04:01:58;;;;;;;10.80;6.55;;;;;;;7.28;100.00;100873.06;5067603;28;20089;-45
2023/04/15 04:04:23;;;;;;;14.82;7.05;;;;;;;7.31;100.00;100874.59;5068894;28;20450;-45
2023/04/15 04:06:48;;;;;;;12.20;6.63;;;;;;;7.32;100.00;100868.22;5068856;28;20024;-43
2023/04/15 04:09:14;;;;;;;14.10;6.90;;;;;;;7.29;100.00;100873.91;5070212;28;20029;-44
2023/04/15 04:11:39;;;;;;;12.55;6.28;;;;;;;7.21;100.00;100875.56;5065259;28;20028;-45
2023/04/15 04:14:05;;;;;;;13.80;6.65;;;;;;;7.19;100.00;100882.91;5047549;28;20024;-43
2023/04/15 04:16:30;;;;;;;10.93;6.72;;;;;;;7.19;100.00;100896.28;5057091;28;20040;-44
2023/04/15 04:18:56;;;;;;;15.60;7.05;;;;;;;7.20;100.00;100883.75;5067078;28;20033;-47
2023/04/15 04:21:21;;;;;;;13.00;6.80;;;;;;;7.16;100.00;100893.94;5058400;28;20489;-46
2023/04/15 04:23:46;;;;;;;11.43;7.03;;;;;;;7.14;100.00;100895.09;5048800;28;20021;-45
2023/04/15 04:26:12;;;;;;;11.85;6.43;;;;;;;7.11;100.00;100898.91;5057276;28;20078;-44
2023/04/15 04:28:39;;;;;;;8.68;6.43;;;;;;;7.08;100.00;100907.25;5068377;28;20038;-43
2023/04/15 04:31:05;;;;;;;9.63;6.75;;;;;;;7.09;100.00;100914.28;5060143;28;20446;-44
2023/04/15 04:33:31;;;;;;;13.55;7.15;;;;;;;7.09;100.00;100910.78;5062019;28;20032;-45
2023/04/15 04:35:56;;;;;;;13.77;6.97;;;;;;;7.04;100.00;100921.94;5055299;28;20036;-44
2023/04/15 04:38:21;;;;;;;12.90;7.28;;;;;;;7.02;100.00;100918.59;5057435;28;20120;-44
2023/04/15 04:40:47;;;;;;;16.05;6.90;;;;;;;6.96;100.00;100921.91;5056273;28;20118;-45
2023/04/15 04:43:13;;;;;;;10.93;6.93;;;;;;;6.93;100.00;100925.72;5063242;28;20535;-44
2023/04/15 04:45:39;;;;;;;13.80;6.88;;;;;;;6.97;100.00;100942.28;5063836;28;20404;-44
2023/04/15 04:48:05;;;;;;;12.63;6.90;;;;;;;6.96;100.00;100937.94;5058855;28;20037;-45
2023/04/15 04:50:32;;;;;;;13.73;7.45;;;;;;;6.93;100.00;100946.28;5059816;28;20103;-46
2023/04/15 04:52:58;;;;;;;14.98;6.95;;;;;;;6.90;100.00;100951.94;5047817;28;20116;-44
2023/04/15 04:55:23;;;;;;;14.55;7.38;;;;;;;6.89;100.00;100958.28;5050982;28;20178;-45
2023/04/15 04:57:48;;;;;;;14.38;8.60;;;;;;;6.91;100.00;100958.97;5064320;28;20119;-45
2023/04/15 05:00:14;;;;;;;14.10;6.95;;;;;;;6.93;100.00;100963.19;5067678;28;20366;-45
2023/04/15 05:02:41;;;;;;;12.07;7.10;;;;;;;6.94;100.00;100964.00;5067718;28;20037;-44
2023/04/15 05:05:06;;;;;;;14.77;7.60;;;;;;;6.97;100.00;100979.75;5059796;28;20055;-43
2023/04/15 05:07:32;;;;;;;10.85;7.07;;;;;;;7.00;100.00;100971.41;5059656;28;20481;-45
2023/04/15 05:09:57;;;;;;;15.93;7.32;;;;;;;7.02;100.00;100972.09;5066414;28;20020;-45
2023/04/15 05:12:22;;;;;;;14.20;7.82;;;;;;;7.05;100.00;100987.84;5063047;28;20166;-47
2023/04/15 05:14:48;;;;;;;17.17;7.93;;;;;;;7.08;100.00;100987.53;5062910;28;20028;-44
2023/04/15 05:17:14;;;;;;;11.93;7.00;;;;;;;7.12;100.00;100993.44;5063750;28;20131;-44
2023/04/15 05:19:39;;;;;;;12.93;7.78;;;;;;;7.19;100.00;100994.50;5067788;28;20074;-43
2023/04/15 05:22:05;;;;;;;16.13;8.13;;;;;;;7.21;100.00;101001.38;5066435;28;20545;-43
2023/04/15 05:24:30;;;;;;;11.68;7.38;;;;;;;7.23;100.00;101006.56;5066178;28;20036;-44
2023/04/15 05:26:55;;;;;;;14.07;7.97;;;;;;;7.26;100.00;101004.38;5069686;28;20588;-44
2023/04/15 05:29:21;;;;;;;14.40;8.05;;;;;;;7.36;100.00;101012.34;5068502;28;20032;-44
2023/04/15 05:31:46;;;;;;;14.55;8.15;;;;;;;7.48;100.00;101010.25;5071196;28;20115;-42
2023/04/15 05:34:12;;;;;;;13.35;8.23;;;;;;;7.72;100.00;101022.94;5069480;28;20032;-43
2023/04/15 05:36:37;;;;;;;15.27;7.88;;;;;;;8.01;100.00;101024.44;5070415;28;20119;-45
2023/04/15 05:39:03;;;;;;;14.05;8.10;;;;;;;8.32;100.00;101025.56;5071145;28;20033;-43
2023/04/15 05:41:28;;;;;;;15.93;7.82;;;;;;;8.75;100.00;101029.03;5066799;28;20515;-46
2023/04/15 05:43:54;;;;;;;26.23;8.20;;;;;;;9.28;100.00;101032.25;5062776;28;20122;-46
2023/04/15 05:46:19;;;;;;;12.90;8.15;;;;;;;9.93;100.00;101033.16;5063521;28;20040;-48
2023/04/15 05:48:44;;;;;;;11.57;7.57;;;;;;;10.47;100.00;101044.88;5060689;28;20025;-43
2023/04/15 05:51:10;;;;;;;12.18;7.13;;;;;;;11.01;100.00;101046.72;5051006;28;20052;-45
2023/04/15 05:53:36;;;;;;;17.08;7.53;;;;;;;11.50;100.00;101054.38;5050992;28;20472;-43
2023/04/15 05:56:01;;;;;;;13.60;8.18;;;;;;;11.93;100.00;101065.47;5061129;28;20052;-44
2023/04/15 05:58:26;;;;;;;13.82;7.20;;;;;;;12.32;100.00;101067.00;5066723;28;20049;-45
2023/04/15 06:00:52;;;;;;;14.80;7.25;;;;;;;12.66;100.00;101063.69;5068005;28;20414;-44
2023/04/15 06:03:17;;;;;;;12.77;7.05;;;;;;;12.59;100.00;101072.75;5070946;28;20142;-43
2023/04/15 06:05:43;;;;;;;11.82;6.88;;;;;;;12.98;100.00;101071.50;5068358;28;20020;-45
2023/04/15 06:08:09;;;;;;;11.93;7.30;;;;;;;13.21;98.86;101076.72;5070670;28;20032;-43
2023/04/15 06:10:35;;;;;;;16.00;7.60;;;;;;;13.26;97.45;101085.94;5070910;28;20042;-45
2023/04/15 06:13:02;;;;;;;16.52;7.63;;;;;;;13.47;96.74;101095.09;5068805;28;20075;-45
2023/04/15 06:15:28;;;;;;;16.90;8.10;;;;;;;13.65;94.73;101094.63;5065782;28;20570;-43
2023/04/15 06:17:53;;;;;;;15.60;7.68;;;;;;;13.62;94.79;101103.97;5050884;28;20033;-47
2023/04/15 06:20:19;;;;;;;16.58;8.05;;;;;;;13.88;95.05;101105.19;5061769;28;20032;-44
2023/04/15 06:22:44;;;;;;;13.95;7.43;;;;;;;14.07;92.48;101112.59;5068618;28;20119;-44
2023/04/15 06:25:09;;;;;;;15.23;8.73;;;;;;;13.98;93.07;101111.94;5070202;28;20370;-45
2023/04/15 06:27:35;;;;;;;15.48;7.68;;;;;;;13.99;91.95;101124.41;5069048;28;20163;-45
2023/04/15 06:30:00;;;;;;;14.88;7.90;;;;;;;13.73;93.32;101135.88;5066770;28;20145;-44
2023/04/15 06:32:26;;;;;;;16.33;8.43;;;;;;;13.22;95.87;101136.00;5070561;28;20040;-46
2023/04/15 06:34:51;;;;;;;14.02;8.50;;;;;;;12.75;98.83;101150.84;5070896;28;20033;-47
2023/04/15 06:37:16;;;;;;;14.50;8.73;;;;;;;12.33;100.00;101143.44;5069426;28;20058;-46
2023/04/15 06:39:43;;;;;;;15.23;8.07;;;;;;;12.86;100.00;101149.53;5069802;28;20040;-43
2023/04/15 06:42:09;;;;;;;13.73;8.60;;;;;;;13.48;99.66;101148.13;5067791;28;20054;-45
2023/04/15 06:44:36;;;;;;;12.05;7.60;;;;;;;14.18;95.68;101152.66;5067582;28;20032;-45
2023/04/15 06:47:01;;;;;;;18.02;8.52;;;;;;;14.60;92.15;101148.13;5065789;28;20048;-44
2023/04/15 06:49:26;;;;;;;12.15;7.63;;;;;;;14.77;89.60;101156.78;5069133;28;20055;-42
2023/04/15 06:51:52;;;;;;;15.10;8.07;;;;;;;15.12;88.90;101159.38;5068342;28;20587;-43
2023/04/15 06:54:17;;;;;;;12.65;7.80;;;;;;;15.23;86.64;101168.81;5069866;28;20078;-43
2023/04/15 06:56:43;;;;;;;13.18;8.32;;;;;;;15.10;86.93;101164.16;5068591;28;20052;-43
2023/04/15 06:59:08;;;;;;;14.77;8.20;;;;;;;15.42;86.42;101173.41;5051597;28;20021;-45
2023/04/15 07:01:33;;;;;;;17.45;7.63;;;;;;;15.57;85.34;101165.09;5055968;28;20036;-44
2023/04/15 07:03:59;;;;;;;11.68;7.15;;;;;;;15.77;84.51;101170.56;5070870;28;20107;-45
2023/04/15 07:06:24;;;;;;;15.68;7.60;;;;;;;15.89;83.27;101179.75;5070728;28;20037;-44
2023/04/15 07:08:50;;;;;;;13.13;8.18;;;;;;;15.97;82.96;101182.25;5068944;28;20186;-45
2023/04/15 07:11:16;;;;;;;13.98;7.55;;;;;;;16.29;82.33;101184.31;5070013;28;20381;-46
2023/04/15 07:13:41;;;;;;;12.02;8.07;;;;;;;16.71;81.82;101182.97;5062588;28;20017;-45
2023/04/15 07:16:07;;;;;;;12.70;7.50;;;;;;;17.31;78.59;101190.91;5058728;28;20314;-43
2023/04/15 07:18:33;;;;;;;10.57;7.45;;;;;;;17.64;75.34;101193.41;5063837;28;20074;-44
2023/04/15 07:20:58;;;;;;;14.13;7.65;;;;;;;17.89;74.27;101200.78;5067679;28;20029;-46
2023/04/15 07:23:23;;;;;;;10.32;7.38;;;;;;;18.39;73.94;101204.31;5066388;28;20028;-46
2023/04/15 07:25:49;;;;;;;16.13;6.72;;;;;;;19.04;71.09;101209.28;5066312;28;20037;-45
2023/04/15 07:28:14;;;;;;;12.63;8.10;;;;;;;18.79;68.18;101222.19;5069242;28;20489;-44
2023/04/15 07:30:40;;;;;;;13.70;7.68;;;;;;;18.76;68.54;101222.63;5069127;28;20032;-45
2023/04/15 07:33:05;;;;;;;10.93;7.53;;;;;;;18.71;68.14;101231.44;5066462;28;20062;-43
2023/04/15 07:35:32;;;;;;;13.70;7.68;;;;;;;18.76;69.34;101228.91;5068921;28;20372;-46
2023/04/15 07:37:57;;;;;;;10.15;7.22;;;;;;;19.21;67.55;101244.13;5067188;28;20405;-44
2023/04/15 07:40:23;;;;;;;11.68;7.35;;;;;;;19.34;67.10;101240.41;5065067;28;20029;-44
2023/04/15 07:42:48;;;;;;;15.07;7.18;;;;;;;19.39;66.73;101243.25;5067261;28;20071;-46
2023/04/15 07:45:14;;;;;;;20.05;7.20;;;;;;;19.37;66.54;101245.38;5067808;28;20069;-46
2023/04/15 07:47:40;;;;;;;10.85;7.07;;;;;;;19.45;64.93;101248.63;5058515;28;20040;-46
2023/04/15 07:50:06;;;;;;;8.63;6.30;;;;;;;19.58;66.08;101252.25;5066170;28;20051;-44
2023/04/15 07:52:37;;;;;;;9.80;6.60;;;;;;;19.86;63.58;101254.38;5067246;28;20036;-46
2023/04/15 07:55:05;;;;;;;9.02;6.60;;;;;;;19.55;63.59;101258.16;5068546;28;20090;-47
2023/04/15 07:57:30;;;;;;;9.30;6.90;;;;;;;19.58;63.88;101268.63;5066027;28;20028;-45
2023/04/15 07:59:55;;;;;;;9.52;7.00;;;;;;;19.59;63.86;101273.00;5063202;28;20093;-45
2023/04/15 08:02:21;;;;;;;15.25;7.00;;;;;;;19.86;63.61;101277.06;5058879;28;20477;-44
2023/04/15 08:04:46;;;;;;;11.40;8.07;;;;;;;19.62;62.59;101280.75;5061529;28;20169;-45
2023/04/15 08:07:12;;;;;;;12.57;7.93;;;;;;;19.41;64.98;101295.72;5066001;28;20111;-45
2023/04/15 08:09:37;;;;;;;10.75;7.38;;;;;;;19.05;63.74;101298.25;5050168;28;20021;-43
2023/04/15 08:12:03;;;;;;;19.75;7.40;;;;;;;18.94;65.04;101301.72;5060038;28;20036;-47
2023/04/15 08:14:28;;;;;;;11.70;7.25;;;;;;;19.03;65.51;101299.53;5067964;28;20442;-45
2023/04/15 08:16:53;;;;;;;10.00;7.00;;;;;;;19.11;63.22;101293.75;5040778;28;20371;-46
2023/04/15 08:19:19;;;;;;;13.52;7.28;;;;;;;19.06;64.42;101301.78;5065654;28;20445;-43
2023/04/15 08:21:44;;;;;;;16.65;7.20;;;;;;;19.43;63.79;101310.81;5068340;28;20040;-46
2023/04/15 08:24:10;;;;;;;11.23;6.47;;;;;;;19.79;62.98;101309.09;5069664;28;20083;-43
2023/04/15 08:26:35;;;;;;;10.43;6.57;;;;;;;20.12;60.98;101315.97;5069985;28;20077;-46
2023/04/15 08:29:01;;;;;;;11.23;7.25;;;;;;;19.97;61.48;101316.41;5067590;28;20029;-45
2023/04/15 08:31:28;;;;;;;9.63;6.75;;;;;;;20.18;61.71;101324.06;5067656;28;20047;-43
2023/04/15 08:33:56;;;;;;;9.93;7.05;;;;;;;19.84;60.57;101322.88;5069788;28;20017;-45
2023/04/15 08:36:21;;;;;;;10.95;7.13;;;;;;;19.50;61.84;101319.75;5063689;28;20032;-42
2023/04/15 08:38:47;;;;;;;10.52;7.38;;;;;;;19.52;62.17;101331.28;5048611;28;20028;-45
2023/04/15 08:41:21;;;;;;;10.32;7.18;;;;;;;19.47;62.57;101336.59;5064683;28;20254;-45
2023/04/15 08:43:58;;;;;;;13.32;7.35;;;;;;;19.78;63.38;101333.94;5070461;28;20540;-46
2023/04/15 08:46:23;;;;;;;9.20;7.15;;;;;;;19.81;61.08;101337.00;5066761;28;20041;-45
2023/04/15 08:48:49;;;;;;;9.25;6.38;;;;;;;19.25;60.98;101357.22;5067773;28;20040;-45
2023/04/15 08:51:16;;;;;;;8.70;5.72;;;;;;;19.13;61.39;101353.56;5069909;28;20068;-44
2023/04/15 08:53:46;;;;;;;8.02;5.80;;;;;;;19.06;60.80;101362.66;5069902;28;20035;-44
2023/04/15 08:56:13;;;;;;;11.85;6.13;;;;;;;19.39;61.04;101368.81;5067793;28;20068;-44
2023/04/15 08:58:38;;;;;;;13.10;6.00;;;;;;;19.46;61.84;101375.88;5069706;28;20428;-44
2023/04/15 09:01:04;;;;;;;10.07;6.03;;;;;;;19.56;61.05;101369.03;5053883;28;20031;-42
2023/04/15 09:03:29;;;;;;;9.15;6.05;;;;;;;19.53;60.26;101382.06;5071385;28;20067;-44
2023/04/15 09:05:56;;;;;;;16.27;6.22;;;;;;;19.21;61.66;101386.84;5073339;28;20385;-45
2023/04/15 09:08:21;;;;;;;7.55;5.72;;;;;;;19.29;60.44;101389.28;5068648;28;20036;-44
2023/04/15 09:10:46;;;;;;;11.45;6.38;;;;;;;19.53;60.28;101392.97;5069495;28;20027;-45
2023/04/15 09:13:12;;;;;;;8.93;5.85;;;;;;;19.66;59.53;101394.75;5072234;28;20028;-45
2023/04/15 09:15:38;;;;;;;10.48;5.60;;;;;;;19.70;57.68;101397.88;5073386;28;20070;-46
2023/04/15 09:18:03;;;;;;;9.27;5.40;;;;;;;19.28;56.64;101392.25;5065672;28;20041;-43
2023/04/15 09:20:29;;;;;;;8.65;5.00;;;;;;;19.11;58.06;101399.34;5085258;28;20017;-46
2023/04/15 09:22:55;;;;;;;7.50;5.47;;;;;;;19.10;58.07;101393.06;5072001;28;20033;-45
2023/04/15 09:25:20;;;;;;;10.50;5.65;;;;;;;19.27;59.35;101404.19;5066547;28;20496;-44
2023/04/15 09:27:56;;;;;;;13.15;5.88;;;;;;;19.94;59.82;101405.13;5065325;28;20112;-45
2023/04/15 09:30:22;;;;;;;6.55;5.47;;;;;;;20.80;56.02;101413.97;5064790;28;20040;-45
2023/04/15 09:32:55;;;;;;;9.10;6.00;;;;;;;20.78;53.88;101407.91;5055292;28;20033;-45
2023/04/15 09:35:21;;;;;;;10.55;5.10;;;;;;;20.87;56.13;101421.22;5064588;28;20036;-46
2023/04/15 09:37:48;;;;;;;11.80;5.63;;;;;;;21.46;52.16;101424.84;5071016;28;20045;-45
2023/04/15 09:40:14;;;;;;;7.30;4.60;;;;;;;21.53;47.00;101431.00;5063080;28;20051;-45
2023/04/15 09:42:55;;;;;;;7.88;4.63;;;;;;;21.61;45.63;101436.09;5051817;28;20477;-46
2023/04/15 09:45:21;;;;;;;10.18;4.53;;;;;;;21.44;45.94;101437.94;5060084;28;20024;-44
2023/04/15 09:47:46;;;;;;;9.25;4.88;;;;;;;21.57;46.16;101431.38;5071656;28;20381;-45
2023/04/15 09:50:13;;;;;;;6.80;4.35;;;;;;;21.57;45.40;101434.94;5068743;28;20032;-44
2023/04/15 09:52:42;;;;;;;8.68;5.25;;;;;;;21.59;46.80;101446.47;5062866;28;20017;-44
2023/04/15 09:55:08;;;;;;;10.23;4.70;;;;;;;22.27;45.92;101446.75;5060815;28;20052;-47
2023/04/15 09:57:35;;;;;;;6.18;4.63;;;;;;;22.66;46.15;101447.75;5065285;28;20029;-45
2023/04/15 10:00:02;;;;;;;9.80;4.15;;;;;;;22.89;45.31;101452.25;5067195;28;20033;-45
2023/04/15 10:02:28;;;;;;;;;;;;;;;23.03;42.46;101454.69;5070350;28;20028;-45
2023/04/15 10:04:53;;;;;;;7.87;4.33;;;;;;;22.78;43.37;101459.50;5065910;28;19923;-43
2023/04/15 10:07:21;;;;;;;9.13;4.55;;;;;;;22.92;44.18;101461.91;5064440;28;20302;-46
2023/04/15 10:09:48;;;;;;;7.60;3.95;;;;;;;22.96;43.30;101463.06;5064904;28;20132;-44
2023/04/15 10:12:18;;;;;;;15.20;3.50;;;;;;;23.47;41.35;101461.13;5051545;28;20454;-45
2023/04/15 10:14:44;;;;;;;10.95;3.20;;;;;;;23.48;39.33;101457.28;5062852;28;20020;-45
2023/04/15 10:17:13;;;;;;;7.28;3.80;;;;;;;23.39;42.02;101462.41;5068188;28;20401;-45
2023/04/15 10:19:39;;;;;;;7.40;3.35;;;;;;;23.45;41.38;101468.78;5066801;28;20426;-47
2023/04/15 10:22:05;;;;;;;3.78;2.33;;;;;;;23.46;38.13;101475.97;5067268;28;20066;-47
2023/04/15 10:24:31;;;;;;;4.75;2.45;;;;;;;23.17;36.83;101477.97;5068147;28;20024;-45
2023/04/15 10:26:57;;;;;;;4.28;2.30;;;;;;;22.63;36.05;101485.84;5068360;28;20400;-45
2023/04/15 10:29:28;;;;;;;6.88;2.40;;;;;;;22.49;38.32;101491.63;5067721;28;20036;-44
2023/04/15 10:31:55;;;;;;;3.60;2.90;;;;;;;22.27;40.18;101482.41;5068923;28;20029;-45
2023/04/15 10:34:22;;;;;;;13.55;2.70;;;;;;;22.38;39.63;101484.28;5069981;28;20078;-44
2023/04/15 10:36:48;;;;;;;2.65;2.38;;;;;;;22.49;39.33;101482.56;5069965;28;20063;-46
2023/04/15 10:39:32;;;;;;;5.45;2.58;;;;;;;22.13;38.53;101482.66;5058847;28;20061;-44
2023/04/15 10:42:06;;;;;;;5.72;2.83;;;;;;;21.68;40.09;101482.53;5064226;28;20365;-44
2023/04/15 10:44:32;;;;;;;4.40;2.97;;;;;;;21.27;41.83;101485.16;5068574;28;20086;-46
2023/04/15 10:46:57;;;;;;;6.90;3.30;;;;;;;21.08;44.28;101485.50;5067475;28;20028;-43
2023/04/15 10:49:24;;;;;;;5.22;3.40;;;;;;;21.36;43.62;101487.53;5067834;28;20035;-44
2023/04/15 10:51:51;;;;;;;7.22;3.55;;;;;;;21.66;43.57;101484.69;5067758;28;20040;-44
2023/04/15 10:54:25;;;;;;;6.07;2.67;;;;;;;22.26;42.92;101487.06;5068034;28;20261;-46
2023/04/15 10:57:22;;;;;;;3.83;2.35;;;;;;;22.38;40.11;101488.94;5063773;28;20198;-45
2023/04/15 11:00:10;;;;;;;3.03;2.25;;;;;;;22.72;39.21;101496.16;5051853;28;20040;-45
2023/04/15 11:02:42;;;;;;;4.63;2.72;;;;;;;22.62;39.64;101497.88;5059606;28;20132;-46
2023/04/15 11:05:08;;;;;;;2.90;2.50;;;;;;;22.26;41.41;101494.47;5062596;28;20041;-45
2023/04/15 11:07:33;;;;;;;4.53;2.70;;;;;;;22.44;41.68;101497.03;5052125;28;20043;-46
2023/04/15 11:09:58;;;;;;;8.50;2.60;;;;;;;22.65;41.52;101505.63;5061138;28;20445;-45
2023/04/15 11:12:34;;;;;;;5.60;2.25;;;;;;;22.96;39.44;101505.13;5067367;28;20063;-45
2023/04/15 11:15:31;;;;;;;3.05;2.00;;;;;;;23.01;38.35;101507.09;5056085;28;20032;-43